Time;durP1;ratioP1;P1;durP2;ratioP2;P2;SDS_P1;SDS_P2;PMS_P1;PMS_P2;Temp;Humidity;BMP_temperature;BMP_pressure;BME280_temperature;BME280_humidity;BME280_pressure;Samples;Min_cycle;Max_cycle;Signal;HPM_P1;HPM_P2
2021/07/29 00:00:15;0.00;0.00;0.62;0.00;0.00;0.62;;;;;23.20;1.00;;;;;;2267364;61;1141;-86
2021/07/29 00:02:42;0.00;0.00;0.62;0.00;0.00;0.62;;;;;23.10;1.00;;;;;;2267030;61;1142;-86
2021/07/29 00:05:11;26248.00;0.09;46.09;0.00;0.00;0.62;;;;;23.20;1.00;;;;;;2267699;61;1924;-87
2021/07/29 00:07:38;14995.00;0.05;26.60;0.00;0.00;0.62;;;;;23.20;1.00;;;;;;2267544;61;1096;-87
2021/07/29 00:10:07;234560.00;0.78;405.39;97409.00;0.32;169.10;;;;;23.10;1.00;;;;;;2267585;61;1347;-86
2021/07/29 00:12:37;204358.00;0.68;353.42;34935.00;0.12;61.12;;;;;23.10;1.00;;;;;;2267996;61;1118;-86
2021/07/29 00:15:10;29019.00;0.10;50.89;0.00;0.00;0.62;;;;;23.00;1.00;;;;;;2268726;61;1353;-88
2021/07/29 00:22:53;1404.00;0.00;3.05;0.00;0.00;0.62;;;;;22.60;1.00;;;;;;2274073;61;1355;-77
2021/07/29 00:25:20;0.00;0.00;0.62;0.00;0.00;0.62;;;;;22.60;1.00;;;;;;2272459;61;2004;-79
2021/07/29 00:27:47;95430.00;0.32;165.68;0.00;0.00;0.62;;;;;22.20;1.00;;;;;;2260065;61;1000;-79
2021/07/29 00:30:16;361055.00;1.20;622.86;141183.00;0.47;244.61;;;;;22.40;1.00;;;;;;2260288;61;1412;-80
2021/07/29 00:32:44;0.00;0.00;0.62;0.00;0.00;0.62;;;;;22.50;1.00;;;;;;2253646;61;1044;-79
2021/07/29 00:35:14;0.00;0.00;0.62;0.00;0.00;0.62;;;;;22.50;1.00;;;;;;2253726;61;950;-80
2021/07/29 00:37:42;0.00;0.00;0.62;0.00;0.00;0.62;;;;;22.60;1.00;;;;;;2259193;61;903;-77
2021/07/29 00:40:11;0.00;0.00;0.62;0.00;0.00;0.62;;;;;22.60;1.00;;;;;;2260236;61;1254;-82
2021/07/29 00:42:38;203814.00;0.68;352.49;55380.00;0.18;96.49;;;;;22.50;1.00;;;;;;2256825;61;987;-80
2021/07/29 00:45:07;62065.00;0.21;108.05;0.00;0.00;0.62;;;;;22.50;1.00;;;;;;2260871;61;990;-80
2021/07/29 00:47:35;0.00;0.00;0.62;0.00;0.00;0.62;;;;;22.50;1.00;;;;;;2268366;61;1997;-80
2021/07/29 00:50:03;0.00;0.00;0.62;0.00;0.00;0.62;;;;;22.80;1.00;;;;;;2268110;61;1026;-81
2021/07/29 00:52:30;0.00;0.00;0.62;0.00;0.00;0.62;;;;;22.70;1.00;;;;;;2261449;61;975;-81
2021/07/29 00:54:57;33088.00;0.11;57.93;0.00;0.00;0.62;;;;;22.70;1.00;;;;;;2258123;61;1066;-80
2021/07/29 00:57:25;0.00;0.00;0.62;0.00;0.00;0.62;;;;;22.50;1.00;;;;;;2268318;61;911;-78
2021/07/29 00:59:52;55492.00;0.18;96.68;0.00;0.00;0.62;;;;;22.50;1.00;;;;;;2258140;61;964;-79
2021/07/29 01:04:47;0.00;0.00;0.62;0.00;0.00;0.62;;;;;22.40;1.00;;;;;;2266135;61;1372;-79
2021/07/29 01:07:14;154465.00;0.51;267.50;0.00;0.00;0.62;;;;;22.50;1.00;;;;;;2264628;61;1912;-79
2021/07/29 01:09:41;121999.00;0.41;211.53;55790.00;0.19;97.20;;;;;22.50;1.00;;;;;;2256042;61;931;-81
2021/07/29 01:12:08;40205.00;0.13;70.24;0.00;0.00;0.62;;;;;22.60;1.00;;;;;;2247937;61;1465;-81
2021/07/29 01:14:36;223390.00;0.74;386.18;87169.00;0.29;151.42;;;;;22.70;1.00;;;;;;2244674;61;1425;-81
2021/07/29 01:17:04;305993.00;1.02;528.22;84155.00;0.28;146.21;;;;;22.40;1.00;;;;;;2241337;61;999;-80
2021/07/29 01:19:32;216057.00;0.72;373.56;71082.00;0.24;123.63;;;;;22.40;1.00;;;;;;2244853;61;987;-81
2021/07/29 01:22:00;0.00;0.00;0.62;0.00;0.00;0.62;;;;;22.60;1.00;;;;;;2243695;61;1298;-82
2021/07/29 01:24:28;0.00;0.00;0.62;0.00;0.00;0.62;;;;;22.70;1.00;;;;;;2244042;61;1019;-80
2021/07/29 01:26:56;0.00;0.00;0.62;0.00;0.00;0.62;;;;;22.80;1.00;;;;;;2233783;61;1932;-81
2021/07/29 01:29:23;34746.00;0.12;60.80;0.00;0.00;0.62;;;;;22.90;1.00;;;;;;2235339;61;942;-82
2021/07/29 01:31:49;19247.00;0.06;33.97;0.00;0.00;0.62;;;;;22.50;1.00;;;;;;2248374;61;1282;-80
2021/07/29 01:34:18;0.00;0.00;0.62;0.00;0.00;0.62;;;;;22.60;1.00;;;;;;2245258;61;918;-81
2021/07/29 01:36:46;11567.00;0.04;20.66;0.00;0.00;0.62;;;;;22.70;1.00;;;;;;2248500;61;1034;-80
2021/07/29 01:39:15;0.00;0.00;0.62;0.00;0.00;0.62;;;;;22.40;1.00;;;;;;2245801;61;981;-79
2021/07/29 01:41:42;112168.00;0.37;194.57;27079.00;0.09;47.53;;;;;22.40;1.00;;;;;;2247805;61;1342;-79
2021/07/29 01:44:11;0.00;0.00;0.62;0.00;0.00;0.62;;;;;22.40;1.00;;;;;;2249318;61;987;-82
2021/07/29 01:46:38;0.00;0.00;0.62;0.00;0.00;0.62;;;;;22.60;1.00;;;;;;2252468;61;1916;-81
2021/07/29 01:49:05;0.00;0.00;0.62;0.00;0.00;0.62;;;;;22.80;1.00;;;;;;2249416;61;973;-81
2021/07/29 01:51:32;0.00;0.00;0.62;0.00;0.00;0.62;;;;;22.90;1.00;;;;;;2255583;61;1183;-80
2021/07/29 01:53:59;110876.00;0.37;192.34;44605.00;0.15;77.85;;;;;23.00;1.00;;;;;;2252505;61;1029;-78
2021/07/29 01:56:27;166911.00;0.56;288.95;0.00;0.00;0.62;;;;;22.80;1.00;;;;;;2255850;61;1002;-81
2021/07/29 01:58:54;23747.00;0.08;41.76;0.00;0.00;0.62;;;;;22.80;1.00;;;;;;2256468;61;990;-81
2021/07/29 02:01:21;0.00;0.00;0.62;0.00;0.00;0.62;;;;;22.80;1.00;;;;;;2253426;61;1326;-80
2021/07/29 02:03:50;0.00;0.00;0.62;0.00;0.00;0.62;;;;;22.60;1.00;;;;;;2259518;61;1005;-80
2021/07/29 02:06:17;0.00;0.00;0.62;0.00;0.00;0.62;;;;;22.60;1.00;;;;;;2256579;61;2014;-80
2021/07/29 02:08:45;0.00;0.00;0.62;0.00;0.00;0.62;;;;;22.70;1.00;;;;;;2253369;61;1009;-81
2021/07/29 02:11:11;34495.00;0.11;60.36;0.00;0.00;0.62;;;;;22.90;1.00;;;;;;2253379;61;1354;-81
2021/07/29 02:13:40;0.00;0.00;0.62;0.00;0.00;0.62;;;;;22.90;1.00;;;;;;2259676;61;1002;-81
2021/07/29 02:16:11;0.00;0.00;0.62;0.00;0.00;0.62;;;;;23.00;1.00;;;;;;2260336;61;990;-79
2021/07/29 02:18:38;0.00;0.00;0.62;0.00;0.00;0.62;;;;;23.00;1.00;;;;;;2260351;61;1014;-82
2021/07/29 02:21:09;0.00;0.00;0.62;0.00;0.00;0.62;;;;;23.00;1.00;;;;;;2260097;61;1443;-81
2021/07/29 02:23:36;65636.00;0.22;114.22;0.00;0.00;0.62;;;;;23.00;1.00;;;;;;2260244;61;989;-80
2021/07/29 02:26:03;151910.00;0.51;263.10;32486.00;0.11;56.89;;;;;22.70;1.00;;;;;;2253396;61;1922;-79
2021/07/29 02:28:30;90354.00;0.30;156.92;0.00;0.00;0.62;;;;;22.50;1.00;;;;;;2253427;61;985;-81
2021/07/29 02:30:58;0.00;0.00;0.62;0.00;0.00;0.62;;;;;22.20;1.00;;;;;;2247119;61;1302;-80
2021/07/29 02:33:25;0.00;0.00;0.62;0.00;0.00;0.62;;;;;21.90;1.00;;;;;;2244491;61;983;-80
2021/07/29 02:35:52;27421.00;0.09;48.12;0.00;0.00;0.62;;;;;21.60;1.00;;;;;;2244641;61;996;-80
2021/07/29 02:38:19;0.00;0.00;0.62;0.00;0.00;0.62;;;;;21.20;1.00;;;;;;2247738;61;990;-80
2021/07/29 02:40:46;0.00;0.00;0.62;0.00;0.00;0.62;;;;;21.00;1.00;;;;;;2247944;61;1514;-79
2021/07/29 02:43:13;0.00;0.00;0.62;0.00;0.00;0.62;;;;;21.10;1.00;;;;;;2248023;61;1028;-79
2021/07/29 02:45:40;63556.00;0.21;110.62;0.00;0.00;0.62;;;;;21.10;1.00;;;;;;2247992;61;987;-79
2021/07/29 02:48:08;100389.00;0.33;174.24;0.00;0.00;0.62;;;;;20.80;1.00;;;;;;2241341;61;2012;-80
2021/07/29 02:50:35;45204.00;0.15;78.89;0.00;0.00;0.62;;;;;20.50;1.00;;;;;;2245458;61;1514;-79
2021/07/29 02:53:03;6200.00;0.02;11.37;0.00;0.00;0.62;;;;;20.40;1.00;;;;;;2245552;61;1030;-79
2021/07/29 02:55:30;48153.00;0.16;83.99;0.00;0.00;0.62;;;;;20.40;1.00;;;;;;2251625;61;1117;-81
2021/07/29 02:57:57;0.00;0.00;0.62;0.00;0.00;0.62;;;;;20.70;1.00;;;;;;2248735;61;973;-80
2021/07/29 03:00:24;0.00;0.00;0.62;0.00;0.00;0.62;;;;;21.30;1.00;;;;;;2245363;61;1472;-81
2021/07/29 03:02:51;0.00;0.00;0.62;0.00;0.00;0.62;;;;;21.20;1.00;;;;;;2248099;61;982;-81
2021/07/29 03:05:19;157035.00;0.52;271.93;0.00;0.00;0.62;;;;;21.10;1.00;;;;;;2242515;61;974;-79
2021/07/29 03:07:46;0.00;0.00;0.62;0.00;0.00;0.62;;;;;21.20;1.00;;;;;;2249341;61;1914;-82
2021/07/29 03:10:14;1636.00;0.01;3.46;0.00;0.00;0.62;;;;;21.20;1.00;;;;;;2255664;61;1305;-79
2021/07/29 03:12:41;62559.00;0.21;108.90;0.00;0.00;0.62;;;;;21.20;1.00;;;;;;2255847;61;1022;-82
2021/07/29 03:15:08;255251.00;0.85;440.98;120717.00;0.40;209.32;;;;;21.20;1.00;;;;;;2249166;61;1004;-79
2021/07/29 03:17:35;44022.00;0.15;76.85;0.00;0.00;0.62;;;;;21.20;1.00;;;;;;2249138;61;1004;-80
2021/07/29 03:20:02;33174.00;0.11;58.08;0.00;0.00;0.62;;;;;21.40;1.00;;;;;;2255539;61;1027;-80
2021/07/29 03:22:31;0.00;0.00;0.62;0.00;0.00;0.62;;;;;21.30;1.00;;;;;;2256529;61;1002;-80
2021/07/29 03:24:58;0.00;0.00;0.62;0.00;0.00;0.62;;;;;21.30;1.00;;;;;;2259556;61;975;-80
2021/07/29 03:27:25;32937.00;0.11;57.67;0.00;0.00;0.62;;;;;21.50;1.00;;;;;;2259432;61;1989;-81
2021/07/29 03:29:52;21075.00;0.07;37.13;0.00;0.00;0.62;;;;;21.50;1.00;;;;;;2253169;61;1041;-81
2021/07/29 03:34:46;38432.00;0.13;67.18;0.00;0.00;0.62;;;;;21.40;1.00;;;;;;2269515;61;1416;-79
2021/07/29 03:37:13;89939.00;0.30;156.20;0.00;0.00;0.62;;;;;21.40;1.00;;;;;;2260961;61;977;-79
2021/07/29 03:39:42;0.00;0.00;0.62;0.00;0.00;0.62;;;;;21.50;1.00;;;;;;2259344;61;1021;-80
2021/07/29 03:42:09;44609.00;0.15;77.86;0.00;0.00;0.62;;;;;21.50;1.00;;;;;;2253167;61;1349;-80
2021/07/29 03:44:35;0.00;0.00;0.62;0.00;0.00;0.62;;;;;21.50;1.00;;;;;;2256246;61;949;-80
2021/07/29 03:47:03;5064.00;0.02;9.40;0.00;0.00;0.62;;;;;21.60;1.00;;;;;;2252995;61;1935;-80
2021/07/29 03:49:30;0.00;0.00;0.62;0.00;0.00;0.62;;;;;21.50;1.00;;;;;;2256157;61;987;-81
2021/07/29 03:51:57;11841.00;0.04;21.14;0.00;0.00;0.62;;;;;21.80;1.00;;;;;;2259613;61;1361;-79
2021/07/29 03:54:24;61123.00;0.20;106.42;0.00;0.00;0.62;;;;;21.80;1.00;;;;;;2249882;61;971;-79
2021/07/29 03:56:52;99158.00;0.33;172.12;32024.00;0.11;56.09;;;;;21.80;1.00;;;;;;2253166;61;1045;-81
2021/07/29 03:59:19;36759.00;0.12;64.28;0.00;0.00;0.62;;;;;21.80;1.00;;;;;;2259389;61;988;-80
2021/07/29 04:01:46;165933.00;0.55;287.26;31676.00;0.11;55.48;;;;;21.80;1.00;;;;;;2256394;61;1460;-80
2021/07/29 04:04:13;0.00;0.00;0.62;0.00;0.00;0.62;;;;;21.90;1.00;;;;;;2250931;61;947;-79
2021/07/29 04:06:41;307306.00;1.02;530.48;40313.00;0.13;70.43;;;;;22.00;1.00;;;;;;2248305;61;1989;-81
2021/07/29 04:09:08;5734.00;0.02;10.56;0.00;0.00;0.62;;;;;21.90;1.00;;;;;;2251559;61;1011;-80
2021/07/29 04:11:35;60464.00;0.20;105.28;0.00;0.00;0.62;;;;;21.70;1.00;;;;;;2247225;61;1319;-79
2021/07/29 04:14:03;0.00;0.00;0.62;0.00;0.00;0.62;;;;;21.50;1.00;;;;;;2247523;61;981;-79
2021/07/29 04:16:30;11952.00;0.04;21.33;0.00;0.00;0.62;;;;;21.30;1.00;;;;;;2243513;61;995;-80
2021/07/29 04:18:58;7844.00;0.03;14.21;0.00;0.00;0.62;;;;;21.10;1.00;;;;;;2243883;61;1001;-78
2021/07/29 04:21:25;84280.00;0.28;146.43;13738.00;0.05;24.42;;;;;21.30;1.00;;;;;;2234614;61;1448;-79
2021/07/29 04:23:51;0.00;0.00;0.62;0.00;0.00;0.62;;;;;21.80;1.00;;;;;;2247750;61;1037;-82
2021/07/29 04:26:19;63025.00;0.21;109.71;0.00;0.00;0.62;;;;;22.20;1.00;;;;;;2237810;61;1014;-81
2021/07/29 04:28:45;0.00;0.00;0.62;0.00;0.00;0.62;;;;;22.30;1.00;;;;;;2238224;61;2016;-79
2021/07/29 04:31:14;16210.00;0.05;28.71;0.00;0.00;0.62;;;;;21.90;1.00;;;;;;2251459;61;1276;-79
2021/07/29 04:33:40;5661.00;0.02;10.43;0.00;0.00;0.62;;;;;21.60;1.00;;;;;;2252973;61;1007;-78
2021/07/29 04:36:08;10248.00;0.03;18.38;0.00;0.00;0.62;;;;;21.70;1.00;;;;;;2260212;61;948;-79
2021/07/29 04:38:35;0.00;0.00;0.62;0.00;0.00;0.62;;;;;21.90;1.00;;;;;;2263478;61;972;-80
2021/07/29 04:41:04;0.00;0.00;0.62;0.00;0.00;0.62;;;;;21.80;1.00;;;;;;2255429;61;1363;-80
2021/07/29 04:43:31;79148.00;0.26;137.57;0.00;0.00;0.62;;;;;21.60;1.00;;;;;;2251967;61;965;-82
2021/07/29 04:46:01;19800.00;0.07;34.92;0.00;0.00;0.62;;;;;21.70;1.00;;;;;;2255551;61;1025;-82
2021/07/29 04:48:29;0.00;0.00;0.62;0.00;0.00;0.62;;;;;21.80;1.00;;;;;;2252129;61;1919;-80
2021/07/29 04:51:00;13710.00;0.05;24.38;0.00;0.00;0.62;;;;;21.90;1.00;;;;;;2242840;61;1326;-79
2021/07/29 04:53:27;5155.00;0.02;9.55;0.00;0.00;0.62;;;;;21.60;1.00;;;;;;2242858;61;995;-81
2021/07/29 04:55:54;95578.00;0.32;165.94;14571.00;0.05;25.87;;;;;21.30;1.00;;;;;;2243006;61;1023;-79
2021/07/29 04:58:20;35433.00;0.12;61.99;0.00;0.00;0.62;;;;;21.00;1.00;;;;;;2241495;61;1079;-78
2021/07/29 05:00:47;0.00;0.00;0.62;0.00;0.00;0.62;;;;;21.50;1.00;;;;;;2251734;61;1314;-78
2021/07/29 05:03:14;157582.00;0.53;272.87;0.00;0.00;0.62;;;;;21.30;1.00;;;;;;2248805;61;958;-81
2021/07/29 05:05:43;0.00;0.00;0.62;0.00;0.00;0.62;;;;;21.40;1.00;;;;;;2248922;61;963;-81
2021/07/29 05:08:10;53992.00;0.18;94.09;0.00;0.00;0.62;;;;;21.70;1.00;;;;;;2253512;61;1985;-80
2021/07/29 05:10:36;580490.00;1.93;1000.54;209360.00;0.70;362.03;;;;;21.60;1.00;;;;;;2264194;61;1357;-81
2021/07/29 05:13:03;255253.00;0.85;440.99;59545.00;0.20;103.69;;;;;21.60;1.00;;;;;;2264434;61;955;-81
2021/07/29 05:15:30;0.00;0.00;0.62;0.00;0.00;0.62;;;;;21.50;1.00;;;;;;2256254;61;945;-77
2021/07/29 05:17:57;24126.00;0.08;42.41;0.00;0.00;0.62;;;;;21.60;1.00;;;;;;2260641;61;967;-77
2021/07/29 05:20:25;93004.00;0.31;161.49;17084.00;0.06;30.22;;;;;21.40;1.00;;;;;;2257506;61;1325;-80
2021/07/29 05:22:53;0.00;0.00;0.62;0.00;0.00;0.62;;;;;21.30;1.00;;;;;;2260690;61;1009;-79
2021/07/29 05:25:23;122733.00;0.41;212.80;0.00;0.00;0.62;;;;;21.20;1.00;;;;;;2260671;61;1006;-79
2021/07/29 05:27:50;64433.00;0.21;112.14;0.00;0.00;0.62;;;;;21.20;1.00;;;;;;2264309;61;1978;-80
2021/07/29 05:30:19;0.00;0.00;0.62;0.00;0.00;0.62;;;;;21.00;1.00;;;;;;2260633;61;1310;-80
2021/07/29 05:32:47;0.00;0.00;0.62;0.00;0.00;0.62;;;;;21.00;1.00;;;;;;2257438;61;1012;-78
2021/07/29 05:35:13;206791.00;0.69;357.61;1715.00;0.01;3.59;;;;;21.50;1.00;;;;;;2260649;61;955;-79
2021/07/29 05:37:40;104553.00;0.35;181.43;37939.00;0.13;66.32;;;;;21.70;1.00;;;;;;2259710;61;974;-78
2021/07/29 05:40:10;0.00;0.00;0.62;0.00;0.00;0.62;;;;;22.10;1.00;;;;;;2251851;61;1462;-80
2021/07/29 05:42:36;14011.00;0.05;24.90;0.00;0.00;0.62;;;;;22.20;1.00;;;;;;2245327;61;1018;-77
2021/07/29 05:45:04;0.00;0.00;0.62;0.00;0.00;0.62;;;;;22.50;1.00;;;;;;2251444;61;1130;-78
2021/07/29 05:47:31;56319.00;0.19;98.11;0.00;0.00;0.62;;;;;22.70;1.00;;;;;;2248278;61;1985;-78
2021/07/29 05:49:58;212391.00;0.71;367.25;78419.00;0.26;136.31;;;;;22.70;1.00;;;;;;2250347;61;1085;-78
2021/07/29 05:52:25;129771.00;0.43;224.93;0.00;0.00;0.62;;;;;22.50;1.00;;;;;;2243576;62;1359;-79
2021/07/29 05:54:53;0.00;0.00;0.62;0.00;0.00;0.62;;;;;22.80;1.00;;;;;;2236200;62;1021;-79
2021/07/29 05:57:21;903.00;0.00;2.19;0.00;0.00;0.62;;;;;23.10;1.00;;;;;;2228261;61;1007;-79
2021/07/29 05:59:48;16208.00;0.05;28.70;0.00;0.00;0.62;;;;;23.60;1.00;;;;;;2243835;61;1067;-79
2021/07/29 06:02:15;73565.00;0.25;127.92;0.00;0.00;0.62;;;;;23.80;1.00;;;;;;2240770;61;1438;-78
2021/07/29 06:04:42;53071.00;0.18;92.50;0.00;0.00;0.62;;;;;23.90;1.00;;;;;;2237610;61;949;-78
2021/07/29 06:07:09;22886.00;0.08;40.27;0.00;0.00;0.62;;;;;23.80;1.00;;;;;;2237549;61;2001;-81
2021/07/29 06:09:36;75.00;0.00;0.75;0.00;0.00;0.62;;;;;24.20;1.00;;;;;;2238527;61;933;-82
2021/07/29 06:12:03;43572.00;0.15;76.07;0.00;0.00;0.62;;;;;25.00;1.00;;;;;;2251653;61;1284;-81
2021/07/29 06:14:31;0.00;0.00;0.62;0.00;0.00;0.62;;;;;25.90;1.00;;;;;;2258793;61;1243;-82
2021/07/29 06:16:58;0.00;0.00;0.62;0.00;0.00;0.62;;;;;26.70;1.00;;;;;;2251541;61;987;-83
2021/07/29 06:19:32;0.00;0.00;0.62;0.00;0.00;0.62;;;;;27.10;1.00;;;;;;2251763;61;965;-84
2021/07/29 06:22:00;0.00;0.00;0.62;0.00;0.00;0.62;;;;;27.80;1.00;;;;;;2251783;61;1363;-81
2021/07/29 06:24:28;0.00;0.00;0.62;0.00;0.00;0.62;;;;;28.20;1.00;;;;;;2245184;61;1331;-81
2021/07/29 06:26:58;0.00;0.00;0.62;0.00;0.00;0.62;;;;;28.40;1.00;;;;;;2247460;61;1221;-81
2021/07/29 06:31:54;0.00;0.00;0.62;0.00;0.00;0.62;;;;;29.50;1.00;;;;;;2266094;61;1404;-86
2021/07/29 06:34:21;112952.00;0.38;195.92;0.00;0.00;0.62;;;;;30.10;1.00;;;;;;2264337;61;1055;-86
2021/07/29 06:36:48;0.00;0.00;0.62;0.00;0.00;0.62;;;;;31.60;1.00;;;;;;2264310;61;1095;-85
2021/07/29 06:39:15;0.00;0.00;0.62;0.00;0.00;0.62;;;;;32.50;1.00;;;;;;2264298;61;1280;-85
2021/07/29 06:41:42;0.00;0.00;0.62;0.00;0.00;0.62;;;;;32.90;1.00;;;;;;2264250;61;1674;-86
2021/07/29 06:44:09;184661.00;0.62;319.52;0.00;0.00;0.62;;;;;31.80;1.00;;;;;;2264350;61;1027;-87
2021/07/29 06:46:38;37668.00;0.13;65.85;0.00;0.00;0.62;;;;;32.10;1.00;;;;;;2264211;61;1161;-87
2021/07/29 06:49:06;96404.00;0.32;167.36;0.00;0.00;0.62;;;;;32.20;1.00;;;;;;2264201;61;2001;-87
2021/07/29 06:51:35;26863.00;0.09;47.15;0.00;0.00;0.62;;;;;32.10;1.00;;;;;;2264270;61;1054;-87
2021/07/29 06:54:04;33229.00;0.11;58.17;0.00;0.00;0.62;;;;;31.80;1.00;;;;;;2264265;61;932;-87
2021/07/29 06:56:31;104539.00;0.35;181.41;30096.00;0.10;52.75;;;;;31.20;1.00;;;;;;2264236;61;2102;-85
2021/07/29 06:58:58;0.00;0.00;0.62;0.00;0.00;0.62;;;;;31.80;1.00;;;;;;2264215;61;1372;-85
2021/07/29 07:01:25;48863.00;0.16;85.22;0.00;0.00;0.62;;;;;32.20;1.00;;;;;;2264243;61;1088;-85
2021/07/29 07:03:53;22851.00;0.08;40.21;0.00;0.00;0.62;;;;;32.40;1.00;;;;;;2263665;61;1178;-85
2021/07/29 07:06:21;37501.00;0.13;65.56;0.00;0.00;0.62;;;;;33.50;1.00;;;;;;2264208;61;1725;-85
2021/07/29 07:09:05;110838.00;0.37;192.28;0.00;0.00;0.62;;;;;33.80;1.00;;;;;;2264062;61;1923;-85
2021/07/29 07:11:52;;;;;;;;;;;;;;;;;;;;;
2021/07/29 07:14:28;564605.00;1.88;973.14;0.00;0.00;0.62;;;;;33.30;1.00;;;;;;2247737;61;1677;-85
2021/07/29 07:17:11;308082.00;1.03;531.81;0.00;0.00;0.62;;;;;34.40;1.00;;;;;;2247769;61;1205;-87
2021/07/29 07:19:48;;;;;;;;;;;;;;;;;;;;;
2021/07/29 07:22:33;190215.00;0.63;329.08;40455.00;0.13;70.68;;;;;35.90;1.00;;;;;;2247630;61;1830;-87
2021/07/29 07:25:13;347102.00;1.16;598.88;19043.00;0.06;33.61;;;;;34.90;1.00;;;;;;2247682;61;1184;-86
2021/07/29 07:27:55;146292.00;0.49;253.42;0.00;0.00;0.62;;;;;34.80;1.00;;;;;;2247825;61;1979;-88
2021/07/29 07:33:22;660335.00;2.20;1138.52;108123.00;0.36;187.59;;;;;35.90;1.00;;;;;;2262416;61;1761;-87
2021/07/29 07:35:52;296653.00;0.99;512.17;0.00;0.00;0.62;;;;;36.40;1.00;;;;;;2263961;61;1714;-87
2021/07/29 07:38:36;84795.00;0.28;147.32;0.00;0.00;0.62;;;;;36.40;1.00;;;;;;2264158;61;1380;-85
2021/07/29 07:41:06;136219.00;0.45;236.05;0.00;0.00;0.62;;;;;35.20;1.00;;;;;;2264111;61;1649;-85
2021/07/29 07:43:34;0.00;0.00;0.62;0.00;0.00;0.62;;;;;34.80;1.00;;;;;;2264173;61;1033;-86
2021/07/29 07:46:14;;;;;;;;;;;;;;;;;;;;;
2021/07/29 07:48:41;164911.00;0.55;285.50;43189.00;0.14;75.41;;;;;34.80;1.00;;;;;;2263997;61;1995;-86
2021/07/29 07:51:08;152760.00;0.51;264.56;0.00;0.00;0.62;;;;;35.30;1.00;;;;;;2264137;61;1206;-86
2021/07/29 07:53:36;9348.00;0.03;16.82;0.00;0.00;0.62;;;;;35.40;1.00;;;;;;2264142;61;1076;-86
2021/07/29 07:56:05;26106.00;0.09;45.84;0.00;0.00;0.62;;;;;36.00;1.00;;;;;;2264132;61;1127;-87
2021/07/29 07:58:33;0.00;0.00;0.62;0.00;0.00;0.62;;;;;35.80;1.00;;;;;;2264106;61;1425;-86
2021/07/29 08:01:02;18123.00;0.06;32.02;0.00;0.00;0.62;;;;;35.60;1.00;;;;;;2264158;61;1035;-86
2021/07/29 08:03:29;54384.00;0.18;94.77;0.00;0.00;0.62;;;;;35.50;1.00;;;;;;2264112;61;1044;-86
2021/07/29 08:05:56;11879.00;0.04;21.20;0.00;0.00;0.62;;;;;35.50;1.00;;;;;;2264158;61;1016;-87
2021/07/29 08:08:23;0.00;0.00;0.62;0.00;0.00;0.62;;;;;35.30;1.00;;;;;;2264047;61;1996;-86
2021/07/29 08:10:52;0.00;0.00;0.62;0.00;0.00;0.62;;;;;35.80;1.00;;;;;;2264065;61;1096;-86
2021/07/29 08:13:19;0.00;0.00;0.62;0.00;0.00;0.62;;;;;35.30;1.00;;;;;;2264056;61;1534;-87
2021/07/29 08:15:46;0.00;0.00;0.62;0.00;0.00;0.62;;;;;34.30;1.00;;;;;;2264055;61;1153;-86
2021/07/29 08:18:13;0.00;0.00;0.62;0.00;0.00;0.62;;;;;33.50;1.00;;;;;;2264023;61;1301;-86
2021/07/29 08:20:42;65778.00;0.22;114.46;0.00;0.00;0.62;;;;;32.60;1.00;;;;;;2264020;61;1427;-88
2021/07/29 08:23:09;30885.00;0.10;54.11;0.00;0.00;0.62;;;;;31.90;1.00;;;;;;2264077;61;1067;-89
2021/07/29 08:25:36;28446.00;0.09;49.89;0.00;0.00;0.62;;;;;30.30;1.00;;;;;;2264110;61;1126;-89
2021/07/29 08:28:05;0.00;0.00;0.62;0.00;0.00;0.62;;;;;30.00;1.00;;;;;;2264048;61;1992;-88
2021/07/29 08:30:33;171430.00;0.57;296.73;18569.00;0.06;32.79;;;;;29.70;1.00;;;;;;2263975;61;1133;-86
2021/07/29 08:33:13;206865.00;0.69;357.74;0.00;0.00;0.62;;;;;28.90;1.00;;;;;;2264037;61;1009;-87
2021/07/29 08:35:40;82467.00;0.27;143.30;0.00;0.00;0.62;;;;;29.10;1.00;;;;;;2264351;61;1335;-86
2021/07/29 08:38:07;3717.00;0.01;7.06;0.00;0.00;0.62;;;;;29.30;1.00;;;;;;2264670;61;1393;-87
2021/07/29 08:40:34;49099.00;0.16;85.63;0.00;0.00;0.62;;;;;29.60;1.00;;;;;;2264676;61;1135;-87
2021/07/29 08:43:03;40338.00;0.13;70.47;0.00;0.00;0.62;;;;;29.60;1.00;;;;;;2264642;61;1044;-86
2021/07/29 08:45:33;7930.00;0.03;14.36;0.00;0.00;0.62;;;;;29.60;1.00;;;;;;2264730;61;970;-88
2021/07/29 08:48:04;55691.00;0.19;97.03;0.00;0.00;0.62;;;;;30.00;1.00;;;;;;2264683;61;1998;-89
2021/07/29 08:50:30;276990.00;0.92;478.36;29351.00;0.10;51.46;;;;;30.10;1.00;;;;;;2264610;61;1503;-87
2021/07/29 08:52:57;59365.00;0.20;103.38;0.00;0.00;0.62;;;;;29.90;1.00;;;;;;2264683;61;1037;-89
2021/07/29 08:55:25;32156.00;0.11;56.31;0.00;0.00;0.62;;;;;30.60;1.00;;;;;;2264738;61;1126;-89
2021/07/29 08:57:52;7420.00;0.02;13.48;0.00;0.00;0.62;;;;;30.70;1.00;;;;;;2264685;61;1060;-88
2021/07/29 09:00:26;153673.00;0.51;266.14;0.00;0.00;0.62;;;;;30.50;1.00;;;;;;2264617;61;1331;-87
2021/07/29 09:02:54;57046.00;0.19;99.37;0.00;0.00;0.62;;;;;30.80;1.00;;;;;;2264569;61;1664;-88
2021/07/29 09:05:21;34433.00;0.11;60.26;0.00;0.00;0.62;;;;;31.40;1.00;;;;;;2264649;61;1107;-89
2021/07/29 09:14:18;481374.00;1.60;829.76;67497.00;0.22;117.43;;;;;30.20;1.00;;;;;;2263194;61;1044;-87
2021/07/29 09:16:56;240533.00;0.80;415.67;53324.00;0.18;92.93;;;;;29.70;1.00;;;;;;2264611;61;1144;-88
2021/07/29 09:19:35;182082.00;0.61;315.07;62712.00;0.21;109.16;;;;;29.50;1.00;;;;;;2264583;61;1400;-87
2021/07/29 09:22:10;132101.00;0.44;228.95;0.00;0.00;0.62;;;;;29.90;1.00;;;;;;2264609;61;1124;-87
2021/07/29 09:24:56;154317.00;0.51;267.25;46543.00;0.16;81.21;;;;;30.00;1.00;;;;;;2264625;61;1007;-88
2021/07/29 09:27:23;111115.00;0.37;192.75;0.00;0.00;0.62;;;;;29.90;1.00;;;;;;2264591;61;1120;-88
2021/07/29 09:29:50;162764.00;0.54;281.80;0.00;0.00;0.62;;;;;29.40;1.00;;;;;;2264438;61;1994;-86
2021/07/29 09:32:50;445436.00;1.48;767.93;76962.00;0.26;133.79;;;;;28.60;1.00;;;;;;2264598;61;1034;-86
2021/07/29 09:35:32;257923.00;0.86;445.58;0.00;0.00;0.62;;;;;27.80;1.00;;;;;;2263880;61;1599;-86
2021/07/29 09:38:00;0.00;0.00;0.62;0.00;0.00;0.62;;;;;28.20;1.00;;;;;;2264502;61;1056;-88
2021/07/29 09:40:27;90682.00;0.30;157.49;0.00;0.00;0.62;;;;;28.80;1.00;;;;;;2264527;61;1404;-88
2021/07/29 09:43:11;228389.00;0.76;394.78;0.00;0.00;0.62;;;;;28.70;1.00;;;;;;2260794;61;1016;-87
2021/07/29 09:45:39;115428.00;0.38;200.20;0.00;0.00;0.62;;;;;28.10;1.00;;;;;;2264246;61;995;-88
2021/07/29 09:48:08;208527.00;0.70;360.60;0.00;0.00;0.62;;;;;28.40;1.00;;;;;;2264498;61;1036;-86
2021/07/29 09:50:40;175511.00;0.59;303.76;0.00;0.00;0.62;;;;;28.40;1.00;;;;;;2264499;61;1055;-88
2021/07/29 09:53:08;216416.00;0.72;374.18;0.00;0.00;0.62;;;;;27.90;1.00;;;;;;2264078;61;1674;-85
2021/07/29 09:55:36;132305.00;0.44;229.30;0.00;0.00;0.62;;;;;27.90;1.00;;;;;;2264489;61;1048;-86
2021/07/29 09:58:03;132052.00;0.44;228.87;10083.00;0.03;18.09;;;;;28.40;1.00;;;;;;2264479;61;1076;-85
2021/07/29 10:00:34;160063.00;0.53;277.15;0.00;0.00;0.62;;;;;28.50;1.00;;;;;;2264483;61;1421;-87
2021/07/29 10:03:03;128462.00;0.43;222.68;0.00;0.00;0.62;;;;;28.40;1.00;;;;;;2260656;61;988;-87
2021/07/29 10:05:39;29372.00;0.10;51.50;0.00;0.00;0.62;;;;;28.20;1.00;;;;;;2264485;61;1107;-85
2021/07/29 10:08:12;80711.00;0.27;140.27;0.00;0.00;0.62;;;;;28.00;1.00;;;;;;2263955;61;1115;-86
2021/07/29 10:10:40;164151.00;0.55;284.19;0.00;0.00;0.62;;;;;28.30;1.00;;;;;;2264448;61;1938;-88
2021/07/29 10:13:07;181810.00;0.61;314.61;0.00;0.00;0.62;;;;;28.60;1.00;;;;;;2260147;61;1081;-86
2021/07/29 10:15:39;113848.00;0.38;197.47;0.00;0.00;0.62;;;;;28.70;1.00;;;;;;2260450;61;896;-87
2021/07/29 10:18:07;23616.00;0.08;41.53;0.00;0.00;0.62;;;;;28.60;1.00;;;;;;2260406;61;1075;-86
2021/07/29 10:20:35;162308.00;0.54;281.02;0.00;0.00;0.62;;;;;28.70;1.00;;;;;;2260394;61;1036;-87
2021/07/29 10:23:30;308398.00;1.03;532.36;0.00;0.00;0.62;;;;;28.90;1.00;;;;;;2260375;61;1028;-87
2021/07/29 10:26:07;58743.00;0.20;102.30;0.00;0.00;0.62;;;;;28.80;1.00;;;;;;2257819;61;1689;-87
2021/07/29 10:28:38;118845.00;0.40;206.09;25171.00;0.08;44.22;;;;;28.80;1.00;;;;;;2260332;61;1928;-86
2021/07/29 10:31:12;114550.00;0.38;198.68;0.00;0.00;0.62;;;;;28.70;1.00;;;;;;2260311;61;1688;-86
2021/07/29 10:33:59;231552.00;0.77;400.22;148.00;0.00;0.88;;;;;28.60;1.00;;;;;;2260423;61;1060;-87
2021/07/29 10:36:50;348393.00;1.16;601.10;55357.00;0.18;96.45;;;;;28.50;1.00;;;;;;2264418;61;1123;-87
2021/07/29 10:39:19;122790.00;0.41;212.89;0.00;0.00;0.62;;;;;28.30;1.00;;;;;;2260303;61;1418;-87
2021/07/29 10:41:55;108098.00;0.36;187.55;0.00;0.00;0.62;;;;;28.80;1.00;;;;;;2260404;61;980;-86
2021/07/29 10:44:47;0.00;0.00;0.62;0.00;0.00;0.62;;;;;29.30;1.00;;;;;;2260362;61;1007;-87
2021/07/29 10:47:18;43151.00;0.14;75.34;0.00;0.00;0.62;;;;;29.70;1.00;;;;;;2260338;61;1110;-87
2021/07/29 10:50:22;25474.00;0.08;44.75;0.00;0.00;0.62;;;;;29.70;1.00;;;;;;2260276;61;1914;-87